sensor_id;sensor_type;location;lat;lon;timestamp;pressure;altitude;pressure_sealevel;temperature;humidity
25130;BME280;13308;50.860;13.664;2023-12-28T06:30:14;96583.38;;;10.18;97.29
25130;BME280;13308;50.860;13.664;2023-12-28T06:32:40;96568.63;;;10.28;96.08
25130;BME280;13308;50.860;13.664;2023-12-28T06:35:05;96582.06;;;10.26;96.18
25130;BME280;13308;50.860;13.664;2023-12-28T06:37:31;96597.75;;;10.29;95.25
25130;BME280;13308;50.860;13.664;2023-12-28T06:39:56;96594.63;;;10.27;95.21
25130;BME280;13308;50.860;13.664;2023-12-28T06:42:21;96593.41;;;10.28;94.27
25130;BME280;13308;50.860;13.664;2023-12-28T06:44:47;96606.25;;;10.38;92.81
25130;BME280;13308;50.860;13.664;2023-12-28T06:47:12;96606.72;;;10.33;93.16
25130;BME280;13308;50.860;13.664;2023-12-28T06:49:38;96608.81;;;10.26;93.51
25130;BME280;13308;50.860;13.664;2023-12-28T06:52:03;96601.69;;;10.28;92.31
25130;BME280;13308;50.860;13.664;2023-12-28T06:54:28;96603.97;;;10.33;91.25
25130;BME280;13308;50.860;13.664;2023-12-28T06:56:54;96587.44;;;10.33;91.05
25130;BME280;13308;50.860;13.664;2023-12-28T06:59:19;96599.44;;;10.23;91.79
25130;BME280;13308;50.860;13.664;2023-12-28T07:01:44;96602.19;;;10.23;91.83
25130;BME280;13308;50.860;13.664;2023-12-28T07:04:10;96607.81;;;10.16;92.28
25130;BME280;13308;50.860;13.664;2023-12-28T07:06:36;96589.84;;;10.08;92.90
25130;BME280;13308;50.860;13.664;2023-12-28T07:09:01;96618.97;;;10.09;92.91
25130;BME280;13308;50.860;13.664;2023-12-28T07:11:27;96623.84;;;9.98;93.34
25130;BME280;13308;50.860;13.664;2023-12-28T07:13:52;96583.72;;;9.97;93.82
25130;BME280;13308;50.860;13.664;2023-12-28T07:16:18;96602.19;;;10.00;92.72
25130;BME280;13308;50.860;13.664;2023-12-28T07:18:43;96595.88;;;10.00;92.75
25130;BME280;13308;50.860;13.664;2023-12-28T07:21:09;96602.19;;;10.00;92.89
25130;BME280;13308;50.860;13.664;2023-12-28T07:23:37;96620.31;;;9.98;93.60
25130;BME280;13308;50.860;13.664;2023-12-28T07:26:03;96627.44;;;9.95;94.11
25130;BME280;13308;50.860;13.664;2023-12-28T07:28:28;96619.78;;;9.83;94.61
25130;BME280;13308;50.860;13.664;2023-12-28T07:30:54;96620.91;;;9.86;94.31
25130;BME280;13308;50.860;13.664;2023-12-28T07:33:19;96614.22;;;9.87;93.63
25130;BME280;13308;50.860;13.664;2023-12-28T07:35:45;96600.84;;;9.85;93.28
25130;BME280;13308;50.860;13.664;2023-12-28T07:38:10;96619.03;;;9.79;93.75
25130;BME280;13308;50.860;13.664;2023-12-28T07:40:35;96619.78;;;9.83;93.52
25130;BME280;13308;50.860;13.664;2023-12-28T07:43:01;96608.75;;;9.83;93.11
25130;BME280;13308;50.860;13.664;2023-12-28T07:45:26;96622.94;;;9.82;92.97
25130;BME280;13308;50.860;13.664;2023-12-28T07:47:51;96620.72;;;9.73;94.26
25130;BME280;13308;50.860;13.664;2023-12-28T07:50:17;96624.66;;;9.72;94.30
25130;BME280;13308;50.860;13.664;2023-12-28T07:52:42;96623.19;;;9.68;94.38
25130;BME280;13308;50.860;13.664;2023-12-28T07:55:08;96631.78;;;9.70;93.78
25130;BME280;13308;50.860;13.664;2023-12-28T07:57:34;96638.66;;;9.58;94.74
25130;BME280;13308;50.860;13.664;2023-12-28T08:00:00;96636.25;;;9.60;94.89
25130;BME280;13308;50.860;13.664;2023-12-28T08:02:26;96630.41;;;9.58;94.08
25130;BME280;13308;50.860;13.664;2023-12-28T08:04:51;96633.50;;;9.60;94.07
25130;BME280;13308;50.860;13.664;2023-12-28T08:07:16;96631.22;;;9.55;94.58
25130;BME280;13308;50.860;13.664;2023-12-28T08:09:42;96634.31;;;9.61;93.71
25130;BME280;13308;50.860;13.664;2023-12-28T08:12:07;96635.81;;;9.65;93.53
25130;BME280;13308;50.860;13.664;2023-12-28T08:14:32;96616.53;;;9.65;93.95
25130;BME280;13308;50.860;13.664;2023-12-28T08:16:58;96592.09;;;9.67;93.22
25130;BME280;13308;50.860;13.664;2023-12-28T08:19:23;96598.00;;;9.66;93.54
25130;BME280;13308;50.860;13.664;2023-12-28T08:21:48;96615.75;;;9.65;94.11
25130;BME280;13308;50.860;13.664;2023-12-28T08:24:13;96623.94;;;9.68;92.95
25130;BME280;13308;50.860;13.664;2023-12-28T08:26:39;96642.91;;;9.63;94.48
25130;BME280;13308;50.860;13.664;2023-12-28T08:29:05;96624.66;;;9.72;93.72
25130;BME280;13308;50.860;13.664;2023-12-28T08:31:30;96623.13;;;9.71;94.10
25130;BME280;13308;50.860;13.664;2023-12-28T08:33:55;96624.31;;;9.70;94.85
25130;BME280;13308;50.860;13.664;2023-12-28T08:36:21;96627.78;;;9.74;94.00
25130;BME280;13308;50.860;13.664;2023-12-28T08:38:47;96617.66;;;9.68;94.73
25130;BME280;13308;50.860;13.664;2023-12-28T08:41:19;96607.06;;;9.66;94.50
25130;BME280;13308;50.860;13.664;2023-12-28T08:43:45;96603.47;;;9.69;94.24
25130;BME280;13308;50.860;13.664;2023-12-28T08:46:11;96603.56;;;9.62;94.69
25130;BME280;13308;50.860;13.664;2023-12-28T08:48:36;96602.81;;;9.62;94.57
25130;BME280;13308;50.860;13.664;2023-12-28T08:51:01;96614.59;;;9.62;94.44
25130;BME280;13308;50.860;13.664;2023-12-28T08:53:27;96606.28;;;9.66;94.43
25130;BME280;13308;50.860;13.664;2023-12-28T08:55:52;96613.84;;;9.62;95.34
25130;BME280;13308;50.860;13.664;2023-12-28T08:58:17;96616.47;;;9.69;94.83
25130;BME280;13308;50.860;13.664;2023-12-28T09:00:43;96625.03;;;9.74;94.79
25130;BME280;13308;50.860;13.664;2023-12-28T09:03:10;96619.16;;;9.72;94.83
25130;BME280;13308;50.860;13.664;2023-12-28T09:05:35;96616.06;;;9.70;95.17
25130;BME280;13308;50.860;13.664;2023-12-28T09:08:01;96622.28;;;9.74;94.87
25130;BME280;13308;50.860;13.664;2023-12-28T09:10:26;96619.91;;;9.76;94.58
25130;BME280;13308;50.860;13.664;2023-12-28T09:12:51;96633.28;;;9.74;95.25
25130;BME280;13308;50.860;13.664;2023-12-28T09:15:17;96645.72;;;9.86;94.34
25130;BME280;13308;50.860;13.664;2023-12-28T09:17:42;96641.63;;;9.94;92.53
25130;BME280;13308;50.860;13.664;2023-12-28T09:20:08;96650.94;;;10.03;91.55
25130;BME280;13308;50.860;13.664;2023-12-28T09:22:33;96636.69;;;10.08;91.44
25130;BME280;13308;50.860;13.664;2023-12-28T09:24:59;96642.22;;;10.08;91.46
25130;BME280;13308;50.860;13.664;2023-12-28T09:27:24;96649.28;;;10.09;91.58
25130;BME280;13308;50.860;13.664;2023-12-28T09:29:50;96648.31;;;10.19;90.29
25130;BME280;13308;50.860;13.664;2023-12-28T09:32:15;96645.19;;;10.17;89.82
25130;BME280;13308;50.860;13.664;2023-12-28T09:34:42;96648.63;;;10.25;87.60
25130;BME280;13308;50.860;13.664;2023-12-28T09:37:07;96643.34;;;10.34;86.04
25130;BME280;13308;50.860;13.664;2023-12-28T09:39:32;96654.38;;;10.34;85.34
25130;BME280;13308;50.860;13.664;2023-12-28T09:41:59;96650.47;;;10.31;86.06
25130;BME280;13308;50.860;13.664;2023-12-28T09:44:30;96634.06;;;10.24;86.69
25130;BME280;13308;50.860;13.664;2023-12-28T09:46:55;96654.38;;;10.34;85.56
25130;BME280;13308;50.860;13.664;2023-12-28T09:49:22;96635.09;;;10.34;84.22
25130;BME280;13308;50.860;13.664;2023-12-28T09:51:48;96632.97;;;10.41;82.58
25130;BME280;13308;50.860;13.664;2023-12-28T09:54:13;96634.47;;;10.46;83.97
25130;BME280;13308;50.860;13.664;2023-12-28T09:56:39;96636.56;;;10.38;83.25
25130;BME280;13308;50.860;13.664;2023-12-28T09:59:05;96637.09;;;10.30;83.91
25130;BME280;13308;50.860;13.664;2023-12-28T10:01:32;96638.25;;;10.32;83.38
25130;BME280;13308;50.860;13.664;2023-12-28T10:03:59;96628.44;;;10.31;83.31
25130;BME280;13308;50.860;13.664;2023-12-28T10:06:24;96637.84;;;10.34;83.16
25130;BME280;13308;50.860;13.664;2023-12-28T10:08:49;96641.91;;;10.26;83.08
25130;BME280;13308;50.860;13.664;2023-12-28T10:11:16;96631.53;;;10.33;81.93
25130;BME280;13308;50.860;13.664;2023-12-28T10:13:42;96619.91;;;10.22;82.30
25130;BME280;13308;50.860;13.664;2023-12-28T10:16:12;96617.88;;;10.26;82.37
25130;BME280;13308;50.860;13.664;2023-12-28T10:18:46;96606.94;;;10.23;82.08
25130;BME280;13308;50.860;13.664;2023-12-28T10:21:12;96612.84;;;10.21;81.24
25130;BME280;13308;50.860;13.664;2023-12-28T10:23:38;96612.84;;;10.21;80.69
25130;BME280;13308;50.860;13.664;2023-12-28T10:26:04;96616.81;;;10.20;80.72
25130;BME280;13308;50.860;13.664;2023-12-28T10:28:34;96615.19;;;10.23;80.42
25130;BME280;13308;50.860;13.664;2023-12-28T10:30:59;96620.03;;;10.15;81.31
25130;BME280;13308;50.860;13.664;2023-12-28T10:33:25;96625.63;;;10.12;82.21
25130;BME280;13308;50.860;13.664;2023-12-28T10:35:51;96641.25;;;10.18;81.52
25130;BME280;13308;50.860;13.664;2023-12-28T10:38:17;96621.53;;;10.20;81.60
25130;BME280;13308;50.860;13.664;2023-12-28T10:40:46;96626.75;;;10.14;82.35
25130;BME280;13308;50.860;13.664;2023-12-28T10:43:15;96607.53;;;10.11;82.33
25130;BME280;13308;50.860;13.664;2023-12-28T10:45:41;96622.78;;;10.15;80.86
25130;BME280;13308;50.860;13.664;2023-12-28T10:48:11;96606.25;;;10.15;80.57
25130;BME280;13308;50.860;13.664;2023-12-28T10:50:41;96622.44;;;10.13;80.59
25130;BME280;13308;50.860;13.664;2023-12-28T10:53:28;96609.81;;;10.16;80.23
25130;BME280;13308;50.860;13.664;2023-12-28T10:59:10;96618.50;;;10.14;80.40
25130;BME280;13308;50.860;13.664;2023-12-28T11:01:37;96622.03;;;10.15;80.12
25130;BME280;13308;50.860;13.664;2023-12-28T11:04:11;96629.50;;;10.14;80.42
25130;BME280;13308;50.860;13.664;2023-12-28T11:06:39;96618.25;;;10.05;81.23
25130;BME280;13308;50.860;13.664;2023-12-28T11:09:08;96631.19;;;10.08;80.66
25130;BME280;13308;50.860;13.664;2023-12-28T11:11:36;96641.25;;;10.18;80.69
25130;BME280;13308;50.860;13.664;2023-12-28T11:14:02;96631.91;;;10.12;81.14
25130;BME280;13308;50.860;13.664;2023-12-28T11:16:28;96641.31;;;10.15;80.98
25130;BME280;13308;50.860;13.664;2023-12-28T11:18:55;96638.13;;;10.16;80.39
25130;BME280;13308;50.860;13.664;2023-12-28T11:21:21;96638.84;;;10.20;80.47
25130;BME280;13308;50.860;13.664;2023-12-28T11:23:47;96626.16;;;10.26;79.89
25130;BME280;13308;50.860;13.664;2023-12-28T11:26:20;96628.25;;;10.19;80.89
25130;BME280;13308;50.860;13.664;2023-12-28T11:28:46;96637.31;;;10.19;80.13
25130;BME280;13308;50.860;13.664;2023-12-28T11:31:15;96628.31;;;10.15;80.26
25130;BME280;13308;50.860;13.664;2023-12-28T11:33:50;96620.63;;;10.26;78.70
25130;BME280;13308;50.860;13.664;2023-12-28T11:36:32;96622.72;;;10.19;79.19
25130;BME280;13308;50.860;13.664;2023-12-28T11:39:02;96628.44;;;10.31;78.09
25130;BME280;13308;50.860;13.664;2023-12-28T11:41:31;96627.47;;;10.18;78.70
25130;BME280;13308;50.860;13.664;2023-12-28T11:43:56;96629.25;;;10.28;78.03
25130;BME280;13308;50.860;13.664;2023-12-28T11:46:22;96630.09;;;10.25;77.91
25130;BME280;13308;50.860;13.664;2023-12-28T11:48:47;96624.53;;;10.29;77.58
25130;BME280;13308;50.860;13.664;2023-12-28T11:51:12;96632.38;;;10.30;77.70
25130;BME280;13308;50.860;13.664;2023-12-28T11:53:38;96617.41;;;10.31;77.86
25130;BME280;13308;50.860;13.664;2023-12-28T11:56:03;96623.13;;;10.21;78.03
25130;BME280;13308;50.860;13.664;2023-12-28T11:58:30;96620.78;;;10.19;76.61
25130;BME280;13308;50.860;13.664;2023-12-28T12:00:55;96618.22;;;10.28;76.18
25130;BME280;13308;50.860;13.664;2023-12-28T12:03:21;96616.69;;;10.27;76.60
25130;BME280;13308;50.860;13.664;2023-12-28T12:05:46;96604.97;;;10.23;75.62
25130;BME280;13308;50.860;13.664;2023-12-28T12:08:11;96609.13;;;10.31;75.54
25130;BME280;13308;50.860;13.664;2023-12-28T12:10:42;96615.84;;;10.30;75.19
25130;BME280;13308;50.860;13.664;2023-12-28T12:13:08;96614.94;;;10.37;75.59
25130;BME280;13308;50.860;13.664;2023-12-28T12:15:34;96626.03;;;10.33;74.77
25130;BME280;13308;50.860;13.664;2023-12-28T12:18:00;96631.53;;;10.33;74.74
25130;BME280;13308;50.860;13.664;2023-12-28T12:20:26;96622.06;;;10.34;74.82
25130;BME280;13308;50.860;13.664;2023-12-28T12:22:51;96628.56;;;10.44;74.51
25130;BME280;13308;50.860;13.664;2023-12-28T12:25:17;96622.13;;;10.73;73.09
25130;BME280;13308;50.860;13.664;2023-12-28T12:27:45;96626.22;;;11.04;71.43
25130;BME280;13308;50.860;13.664;2023-12-28T12:30:10;96635.34;;;11.01;71.37
25130;BME280;13308;50.860;13.664;2023-12-28T12:32:35;96628.09;;;11.27;70.65
25130;BME280;13308;50.860;13.664;2023-12-28T12:35:08;96610.50;;;11.37;69.10
25130;BME280;13308;50.860;13.664;2023-12-28T12:37:34;96617.22;;;11.00;70.52
25130;BME280;13308;50.860;13.664;2023-12-28T12:39:59;96613.19;;;10.85;71.12
25130;BME280;13308;50.860;13.664;2023-12-28T12:42:24;96606.63;;;10.79;70.91
25130;BME280;13308;50.860;13.664;2023-12-28T12:44:50;96614.75;;;10.67;71.76
25130;BME280;13308;50.860;13.664;2023-12-28T12:47:15;96614.69;;;10.51;72.15
25130;BME280;13308;50.860;13.664;2023-12-28T12:49:40;96620.41;;;10.79;71.74
25130;BME280;13308;50.860;13.664;2023-12-28T12:52:08;96613.13;;;10.69;71.52
25130;BME280;13308;50.860;13.664;2023-12-28T12:54:33;96603.72;;;10.86;70.70
25130;BME280;13308;50.860;13.664;2023-12-28T12:56:59;96612.09;;;11.18;69.33
25130;BME280;13308;50.860;13.664;2023-12-28T12:59:24;96601.09;;;10.99;69.31
25130;BME280;13308;50.860;13.664;2023-12-28T13:01:51;96598.69;;;11.01;69.60
25130;BME280;13308;50.860;13.664;2023-12-28T13:04:18;96605.50;;;10.96;69.00
25130;BME280;13308;50.860;13.664;2023-12-28T13:06:43;96596.81;;;10.78;69.93
25130;BME280;13308;50.860;13.664;2023-12-28T13:09:09;96601.44;;;10.81;69.54
25130;BME280;13308;50.860;13.664;2023-12-28T13:11:36;96592.47;;;10.97;69.30
25130;BME280;13308;50.860;13.664;2023-12-28T13:14:02;96593.19;;;10.81;70.09
25130;BME280;13308;50.860;13.664;2023-12-28T13:16:27;96601.03;;;10.63;70.93
25130;BME280;13308;50.860;13.664;2023-12-28T13:18:52;96592.69;;;10.47;71.81
25130;BME280;13308;50.860;13.664;2023-12-28T13:21:18;96595.25;;;10.58;71.65
25130;BME280;13308;50.860;13.664;2023-12-28T13:23:43;96587.25;;;10.63;71.63
25130;BME280;13308;50.860;13.664;2023-12-28T13:26:08;96586.47;;;10.43;72.60
25130;BME280;13308;50.860;13.664;2023-12-28T13:28:34;96587.72;;;10.58;72.18
25130;BME280;13308;50.860;13.664;2023-12-28T13:30:59;96588.28;;;11.08;71.35
25130;BME280;13308;50.860;13.664;2023-12-28T13:33:25;96589.69;;;11.16;70.61
25130;BME280;13308;50.860;13.664;2023-12-28T13:35:50;96587.53;;;11.24;69.90
25130;BME280;13308;50.860;13.664;2023-12-28T13:38:16;96598.06;;;11.64;69.52
25130;BME280;13308;50.860;13.664;2023-12-28T13:40:41;96601.72;;;12.09;67.83
25130;BME280;13308;50.860;13.664;2023-12-28T13:43:07;96601.66;;;12.41;66.41
25130;BME280;13308;50.860;13.664;2023-12-28T13:45:32;96600.84;;;12.57;65.03
25130;BME280;13308;50.860;13.664;2023-12-28T13:47:57;96610.00;;;13.11;64.67
25130;BME280;13308;50.860;13.664;2023-12-28T13:50:23;96604.09;;;12.96;64.00
25130;BME280;13308;50.860;13.664;2023-12-28T13:52:48;96607.41;;;12.91;63.62
25130;BME280;13308;50.860;13.664;2023-12-28T13:55:13;96600.28;;;12.90;64.18
25130;BME280;13308;50.860;13.664;2023-12-28T13:57:38;96596.84;;;12.13;65.42
25130;BME280;13308;50.860;13.664;2023-12-28T14:00:04;96603.13;;;11.50;67.40
25130;BME280;13308;50.860;13.664;2023-12-28T14:02:37;96599.34;;;11.24;69.21
25130;BME280;13308;50.860;13.664;2023-12-28T14:05:02;96604.81;;;11.44;68.74
25130;BME280;13308;50.860;13.664;2023-12-28T14:07:28;96607.75;;;10.82;70.38
25130;BME280;13308;50.860;13.664;2023-12-28T14:09:53;96605.44;;;10.18;73.13
25130;BME280;13308;50.860;13.664;2023-12-28T14:12:18;96598.34;;;9.94;74.71
25130;BME280;13308;50.860;13.664;2023-12-28T14:14:44;96600.47;;;9.60;76.58
25130;BME280;13308;50.860;13.664;2023-12-28T14:17:09;96595.53;;;9.48;77.42
25130;BME280;13308;50.860;13.664;2023-12-28T14:19:34;96608.78;;;9.30;78.86
25130;BME280;13308;50.860;13.664;2023-12-28T14:22:00;96607.34;;;9.22;79.34
25130;BME280;13308;50.860;13.664;2023-12-28T14:24:26;96595.72;;;9.11;79.86
25130;BME280;13308;50.860;13.664;2023-12-28T14:26:55;96604.81;;;9.05;80.35
25130;BME280;13308;50.860;13.664;2023-12-28T14:29:24;96598.16;;;9.02;81.13
25130;BME280;13308;50.860;13.664;2023-12-28T14:31:50;96605.22;;;9.03;80.71
25130;BME280;13308;50.860;13.664;2023-12-28T14:34:16;96608.53;;;8.91;81.85
25130;BME280;13308;50.860;13.664;2023-12-28T14:36:41;96602.31;;;8.87;82.33
25130;BME280;13308;50.860;13.664;2023-12-28T14:39:11;96600.28;;;8.91;82.36
25130;BME280;13308;50.860;13.664;2023-12-28T14:41:37;96599.63;;;8.80;83.20
25130;BME280;13308;50.860;13.664;2023-12-28T14:44:03;96592.97;;;8.81;83.10
25130;BME280;13308;50.860;13.664;2023-12-28T14:46:29;96593.41;;;8.76;84.00
25130;BME280;13308;50.860;13.664;2023-12-28T14:48:55;96595.91;;;8.64;84.65
25130;BME280;13308;50.860;13.664;2023-12-28T14:51:20;96593.50;;;8.69;84.59
25130;BME280;13308;50.860;13.664;2023-12-28T14:53:47;96601.09;;;8.58;85.34
25130;BME280;13308;50.860;13.664;2023-12-28T14:56:12;96598.31;;;8.62;85.39
25130;BME280;13308;50.860;13.664;2023-12-28T14:58:38;96599.69;;;8.43;86.31
25130;BME280;13308;50.860;13.664;2023-12-28T15:01:04;96600.59;;;8.34;87.21
25130;BME280;13308;50.860;13.664;2023-12-28T15:03:30;96603.72;;;8.36;87.23
25130;BME280;13308;50.860;13.664;2023-12-28T15:05:55;96598.22;;;8.36;87.46
25130;BME280;13308;50.860;13.664;2023-12-28T15:08:23;96599.00;;;8.32;87.80
25130;BME280;13308;50.860;13.664;2023-12-28T15:10:48;96593.53;;;8.32;87.81
25130;BME280;13308;50.860;13.664;2023-12-28T15:13:14;96585.84;;;8.13;88.75
25130;BME280;13308;50.860;13.664;2023-12-28T15:15:39;96588.31;;;8.05;89.67
25130;BME280;13308;50.860;13.664;2023-12-28T15:18:05;96586.75;;;8.04;90.04
25130;BME280;13308;50.860;13.664;2023-12-28T15:20:31;96578.44;;;8.11;89.37
25130;BME280;13308;50.860;13.664;2023-12-28T15:22:56;96577.69;;;8.07;89.57
25130;BME280;13308;50.860;13.664;2023-12-28T15:25:22;96566.34;;;8.05;89.50
25130;BME280;13308;50.860;13.664;2023-12-28T15:27:47;96572.66;;;7.98;89.20
25130;BME280;13308;50.860;13.664;2023-12-28T15:30:13;96574.91;;;8.10;88.50
25130;BME280;13308;50.860;13.664;2023-12-28T15:32:42;96567.03;;;8.12;88.53
25130;BME280;13308;50.860;13.664;2023-12-28T15:35:11;96562.09;;;7.97;88.98
25130;BME280;13308;50.860;13.664;2023-12-28T15:37:37;96564.53;;;7.88;89.48
25130;BME280;13308;50.860;13.664;2023-12-28T15:40:03;96565.94;;;8.02;89.22
25130;BME280;13308;50.860;13.664;2023-12-28T15:42:29;96558.19;;;7.98;89.79
25130;BME280;13308;50.860;13.664;2023-12-28T15:44:55;96548.44;;;7.90;89.73
25130;BME280;13308;50.860;13.664;2023-12-28T15:47:20;96560.94;;;7.98;90.22
25130;BME280;13308;50.860;13.664;2023-12-28T15:49:45;96556.63;;;7.93;90.25
25130;BME280;13308;50.860;13.664;2023-12-28T15:52:10;96565.22;;;7.99;90.04
25130;BME280;13308;50.860;13.664;2023-12-28T15:54:36;96557.81;;;7.92;90.43
25130;BME280;13308;50.860;13.664;2023-12-28T15:57:01;96552.88;;;7.77;91.54
25130;BME280;13308;50.860;13.664;2023-12-28T15:59:26;96545.38;;;7.84;91.42
25130;BME280;13308;50.860;13.664;2023-12-28T16:01:52;96546.09;;;7.92;90.99
25130;BME280;13308;50.860;13.664;2023-12-28T16:04:18;96545.44;;;7.77;91.37
25130;BME280;13308;50.860;13.664;2023-12-28T16:06:43;96533.06;;;7.96;90.84
25130;BME280;13308;50.860;13.664;2023-12-28T16:09:09;96539.06;;;7.84;90.97
25130;BME280;13308;50.860;13.664;2023-12-28T16:11:36;96528.97;;;7.77;91.40
25130;BME280;13308;50.860;13.664;2023-12-28T16:14:02;96532.19;;;7.69;91.19
25130;BME280;13308;50.860;13.664;2023-12-28T16:16:27;96543.69;;;7.53;92.23
25130;BME280;13308;50.860;13.664;2023-12-28T16:18:53;96540.94;;;7.50;91.98
25130;BME280;13308;50.860;13.664;2023-12-28T16:21:18;96540.84;;;7.64;90.87
25130;BME280;13308;50.860;13.664;2023-12-28T16:23:44;96550.97;;;7.74;89.27
25130;BME280;13308;50.860;13.664;2023-12-28T16:26:09;96538.47;;;7.66;89.02
25130;BME280;13308;50.860;13.664;2023-12-28T16:28:35;96538.34;;;7.80;87.82
25130;BME280;13308;50.860;13.664;2023-12-28T16:31:02;96543.00;;;7.83;86.88
25130;BME280;13308;50.860;13.664;2023-12-28T16:33:27;96545.31;;;7.88;86.23
25130;BME280;13308;50.860;13.664;2023-12-28T16:35:52;96550.88;;;7.81;86.05
25130;BME280;13308;50.860;13.664;2023-12-28T16:38:20;96550.50;;;7.79;85.53
25130;BME280;13308;50.860;13.664;2023-12-28T16:40:45;96551.72;;;7.74;85.95
25130;BME280;13308;50.860;13.664;2023-12-28T16:43:11;96559.44;;;7.86;84.96
25130;BME280;13308;50.860;13.664;2023-12-28T16:45:36;96561.88;;;7.81;84.94
25130;BME280;13308;50.860;13.664;2023-12-28T16:48:02;96559.63;;;7.69;85.12
25130;BME280;13308;50.860;13.664;2023-12-28T16:50:28;96560.34;;;7.73;84.85
25130;BME280;13308;50.860;13.664;2023-12-28T16:52:53;96563.53;;;7.71;84.87
25130;BME280;13308;50.860;13.664;2023-12-28T16:55:20;96560.34;;;7.73;84.40
25130;BME280;13308;50.860;13.664;2023-12-28T16:57:45;96552.94;;;7.70;84.50
25130;BME280;13308;50.860;13.664;2023-12-28T17:00:11;96559.84;;;7.85;83.65
25130;BME280;13308;50.860;13.664;2023-12-28T17:02:36;96550.13;;;7.77;83.28
25130;BME280;13308;50.860;13.664;2023-12-28T17:05:02;96553.00;;;7.63;83.98
25130;BME280;13308;50.860;13.664;2023-12-28T17:07:29;96549.53;;;7.55;83.89
25130;BME280;13308;50.860;13.664;2023-12-28T17:09:54;96553.38;;;7.65;83.27
25130;BME280;13308;50.860;13.664;2023-12-28T17:12:35;96543.19;;;7.62;83.15
25130;BME280;13308;50.860;13.664;2023-12-28T17:15:02;96546.34;;;7.64;82.49
25130;BME280;13308;50.860;13.664;2023-12-28T17:17:28;96553.41;;;7.61;82.42
25130;BME280;13308;50.860;13.664;2023-12-28T17:19:53;96557.31;;;7.64;81.84
25130;BME280;13308;50.860;13.664;2023-12-28T17:22:23;96568.66;;;7.66;81.32
25130;BME280;13308;50.860;13.664;2023-12-28T17:24:59;96560.47;;;7.62;81.15
25130;BME280;13308;50.860;13.664;2023-12-28T17:27:31;96556.50;;;7.67;81.14
25130;BME280;13308;50.860;13.664;2023-12-28T17:30:00;96554.81;;;7.76;81.01
25130;BME280;13308;50.860;13.664;2023-12-28T17:32:30;96554.53;;;7.67;80.86
25130;BME280;13308;50.860;13.664;2023-12-28T17:34:57;96545.56;;;7.60;81.81
25130;BME280;13308;50.860;13.664;2023-12-28T17:37:22;96555.78;;;7.56;82.31
25130;BME280;13308;50.860;13.664;2023-12-28T17:39:48;96560.44;;;7.66;82.50
25130;BME280;13308;50.860;13.664;2023-12-28T17:42:14;96560.94;;;7.50;83.46
25130;BME280;13308;50.860;13.664;2023-12-28T17:44:42;96568.03;;;7.48;84.48
25130;BME280;13308;50.860;13.664;2023-12-28T17:47:16;96571.19;;;7.43;85.17
25130;BME280;13308;50.860;13.664;2023-12-28T17:49:45;96564.50;;;7.44;85.29
25130;BME280;13308;50.860;13.664;2023-12-28T17:52:16;96583.00;;;7.40;85.99
25130;BME280;13308;50.860;13.664;2023-12-28T17:54:42;96579.53;;;7.29;86.72
25130;BME280;13308;50.860;13.664;2023-12-28T17:57:07;96583.84;;;7.30;88.08
25130;BME280;13308;50.860;13.664;2023-12-28T17:59:32;96577.22;;;7.24;88.97
25130;BME280;13308;50.860;13.664;2023-12-28T18:01:58;96582.69;;;7.27;89.09
25130;BME280;13308;50.860;13.664;2023-12-28T18:04:23;96591.34;;;7.19;90.33
25130;BME280;13308;50.860;13.664;2023-12-28T18:06:49;96588.56;;;7.26;90.76
25130;BME280;13308;50.860;13.664;2023-12-28T18:09:16;96585.88;;;7.19;91.63
25130;BME280;13308;50.860;13.664;2023-12-28T18:11:41;96588.59;;;7.22;91.62
25130;BME280;13308;50.860;13.664;2023-12-28T18:14:07;96596.75;;;7.33;92.30
25130;BME280;13308;50.860;13.664;2023-12-28T18:16:32;96592.88;;;7.27;93.77
25130;BME280;13308;50.860;13.664;2023-12-28T18:18:57;96593.28;;;7.25;94.24
25130;BME280;13308;50.860;13.664;2023-12-28T18:21:25;96586.63;;;7.23;95.61
25130;BME280;13308;50.860;13.664;2023-12-28T18:23:50;96606.16;;;7.35;97.40
25130;BME280;13308;50.860;13.664;2023-12-28T18:26:15;96606.53;;;7.34;97.58
25130;BME280;13308;50.860;13.664;2023-12-28T18:28:41;96601.50;;;7.25;99.12
25130;BME280;13308;50.860;13.664;2023-12-28T18:31:06;96612.81;;;7.31;100.00
25130;BME280;13308;50.860;13.664;2023-12-28T18:33:32;96616.38;;;7.28;100.00
25130;BME280;13308;50.860;13.664;2023-12-28T18:35:58;96607.34;;;7.27;100.00
25130;BME280;13308;50.860;13.664;2023-12-28T18:38:24;96623.03;;;7.30;100.00
25130;BME280;13308;50.860;13.664;2023-12-28T18:40:50;96621.88;;;7.28;100.00
25130;BME280;13308;50.860;13.664;2023-12-28T18:43:16;96621.09;;;7.24;100.00
25130;BME280;13308;50.860;13.664;2023-12-28T18:45:45;96614.78;;;7.34;100.00
25130;BME280;13308;50.860;13.664;2023-12-28T18:48:11;96630.44;;;7.33;100.00
25130;BME280;13308;50.860;13.664;2023-12-28T18:50:39;96617.06;;;7.42;100.00
25130;BME280;13308;50.860;13.664;2023-12-28T18:53:04;96610.00;;;7.45;100.00
25130;BME280;13308;50.860;13.664;2023-12-28T18:55:31;96612.28;;;7.50;100.00
25130;BME280;13308;50.860;13.664;2023-12-28T18:57:56;96606.38;;;7.55;100.00
25130;BME280;13308;50.860;13.664;2023-12-28T19:00:21;96606.00;;;7.53;100.00
25130;BME280;13308;50.860;13.664;2023-12-28T19:02:47;96616.97;;;7.56;100.00
25130;BME280;13308;50.860;13.664;2023-12-28T19:05:12;96601.13;;;7.74;100.00
25130;BME280;13308;50.860;13.664;2023-12-28T19:07:39;96598.78;;;7.73;100.00
25130;BME280;13308;50.860;13.664;2023-12-28T19:10:05;96603.56;;;7.65;100.00
